Startpagina
METAR-TAF:

METAR-TAF

Vliegvelden :

Tahiti, Frans-Polynesië

breedte: 17-33S, lengte: 149-37W, hoogte: 2 m

Actueel weer

Dit bericht is 27 minuten geleden gemaakt, om 19:30 UTC
Wind 5 kt uit het westzuidwesten
Temperatuur 30°C
Vochtigheid 70%
Druk 1014 hPa
Zicht 10 km of meer
Weinig wolken op 2600 ft

METAR: NTAA 241930Z 25005KT 9999 FEW026 30/24 Q1014 NOSIG

Tijdstip: 09:57 (19:57 UTC)

Verwachting

Dit bericht is 2 uur en het 57 minuten geleden gemaakt, om 17:00 UTC
Verwachting geldig van 24 om 18 UTC tot 25 om 24 UTC
Wind 5 kt uit variabele richting
Zicht 10 km of meer
Weinig wolken op 2000 ft
Verspreide wolken op 5000 ft
Kans 40% :
Tijdelijke
van 24 om 18 UTC tot 25 om 04 UTC
Wind 15 kt uit het noordoosten

TAF: NTAA 241700Z 2418/2524 VRB05KT 9999 FEW020 SCT050 PROB40 TEMPO 2418/2504 05015KT

Waarnemingen en weersverwachtingen van meer dan 4000 vliegvelden (METAR en TAF).

De beschikbare stations zijn de gele en rode punten op de kaart.

Ga met uw muis naar het station om de naam te zien.

Klik dan om waarnemingen en weersverwachtingen te zien.

kaart wijzigen: klik op de groene knoppen met een zwart kruis om in te zoomen, op de groene knop met een streepje om uit te zoomen of op de groene pijlen voor aangrenzende kaarten.


METAR-TAF: